Main page
METAR-TAF:

METAR-TAF

Airports :

Región de Murcia International Airport

Murcia, Corvera, Spain

latitude: 37-48-13N, longitude: 1-07-27W, elevation: 193 m

Current weather observation

The report was made 40 minutes ago, at 01:30 UTC
Wind 5 kt from the West, varying between Southwest and Northwest
Temperature 10°C
Humidity 66%
Pressure 1017 hPa
Visibility 10 km or more

METAR: LEMI 150130Z AUTO 28005KT 230V320 9999 NCD 10/04 Q1017

Time: 03:10 (02:10 UTC)


TAF: missing

Weather observations and forecasts of more than 4000 airports (METAR and TAF reports).

The available stations are represented by yellow and red dots on the map.

Hover mouse over dot to see the name of the station.

Then click to see weather observations and forecasts.

To change the map : click on the green buttons with a black cross to zoom in, on the green button with a dash to zoom out, or on the green arrows for adjacent maps.


METAR-TAF: